Time;durP1;ratioP1;P1;durP2;ratioP2;P2;SDS_P1;SDS_P2;PMS_P1;PMS_P2;Temp;Humidity;BMP_temperature;BMP_pressure;BME280_temperature;BME280_humidity;BME280_pressure;Samples;Min_cycle;Max_cycle;Signal;HPM_P1;HPM_P2
2023/08/03 00:01:52;;;;;;;3.20;1.83;;;20.00;97.60;;;;;;10445951;28;20757;-68
2023/08/03 00:06:52;;;;;;;3.10;1.80;;;20.00;97.70;;;;;;10446622;28;20476;-67
2023/08/03 00:11:53;;;;;;;3.10;1.70;;;20.00;97.70;;;;;;10451901;28;20405;-68
2023/08/03 00:16:54;;;;;;;2.23;1.90;;;20.00;97.70;;;;;;10433796;28;20548;-68
2023/08/03 00:21:54;;;;;;;4.90;1.67;;;20.00;97.70;;;;;;10429305;28;20408;-68
2023/08/03 00:26:55;;;;;;;2.65;2.00;;;20.00;97.70;;;;;;10444034;28;20413;-68
2023/08/03 00:31:55;;;;;;;3.00;1.83;;;20.00;97.70;;;;;;10445939;28;20391;-68
2023/08/03 00:36:56;;;;;;;3.50;2.00;;;20.00;97.70;;;;;;10449463;28;20774;-68
2023/08/03 00:41:57;;;;;;;2.47;1.90;;;20.00;97.70;;;;;;10453501;28;20456;-68
2023/08/03 00:46:57;;;;;;;2.90;2.22;;;20.00;97.70;;;;;;10444848;28;20444;-66
2023/08/03 00:51:58;;;;;;;3.55;2.00;;;20.00;97.70;;;;;;10443043;28;20407;-68
2023/08/03 00:56:59;;;;;;;2.53;1.80;;;20.00;97.70;;;;;;10439171;28;20401;-68
2023/08/03 01:02:00;;;;;;;3.13;2.20;;;20.00;97.70;;;;;;10445572;28;20399;-68
2023/08/03 01:07:01;;;;;;;2.70;1.90;;;20.00;97.70;;;;;;10454189;28;20903;-68
2023/08/03 01:12:01;;;;;;;2.30;1.93;;;20.00;97.70;;;;;;10446817;28;20427;-68
2023/08/03 01:17:02;;;;;;;3.37;2.10;;;20.00;97.70;;;;;;10443478;28;20855;-70
2023/08/03 01:22:04;;;;;;;3.53;2.10;;;19.90;97.70;;;;;;10438373;28;20397;-68
2023/08/03 01:27:06;;;;;;;2.72;2.08;;;20.00;97.70;;;;;;10446538;28;20414;-68
2023/08/03 01:32:07;;;;;;;2.65;1.83;;;20.00;97.60;;;;;;10449333;28;20444;-68
2023/08/03 01:37:07;;;;;;;2.20;1.73;;;19.90;97.70;;;;;;10441995;28;20915;-68
2023/08/03 01:42:08;;;;;;;2.50;2.17;;;19.90;97.60;;;;;;10447716;28;20404;-67
2023/08/03 01:47:09;;;;;;;2.90;1.90;;;19.90;97.60;;;;;;10441391;28;20787;-68
2023/08/03 01:52:10;;;;;;;2.33;1.90;;;20.00;97.60;;;;;;10446080;28;20937;-68
2023/08/03 01:57:11;;;;;;;2.33;2.00;;;19.90;97.70;;;;;;10446520;28;20409;-67
2023/08/03 02:02:14;;;;;;;2.80;2.03;;;19.90;97.70;;;;;;10444094;28;20932;-68
2023/08/03 02:07:17;;;;;;;2.67;2.17;;;19.90;97.70;;;;;;10449269;28;20414;-66
2023/08/03 02:12:17;;;;;;;3.30;2.15;;;19.90;97.70;;;;;;10448663;28;20769;-69
2023/08/03 02:17:18;;;;;;;2.67;2.20;;;19.90;97.70;;;;;;10450029;28;20469;-68
2023/08/03 02:22:19;;;;;;;2.50;2.20;;;19.90;97.70;;;;;;10445288;28;20403;-67
2023/08/03 02:27:19;;;;;;;2.80;2.10;;;19.90;97.70;;;;;;10440754;28;20908;-68
2023/08/03 02:32:21;;;;;;;2.80;2.20;;;19.80;97.50;;;;;;10444984;28;20445;-68
2023/08/03 02:37:22;;;;;;;2.40;2.20;;;19.80;97.60;;;;;;10449217;28;20397;-68
2023/08/03 02:42:23;;;;;;;2.50;2.30;;;19.80;97.60;;;;;;10446520;28;20840;-66
2023/08/03 02:47:23;;;;;;;2.67;2.40;;;19.80;97.60;;;;;;10442637;28;20940;-67
2023/08/03 02:52:24;;;;;;;2.77;2.47;;;19.80;97.60;;;;;;10441658;28;20430;-68
2023/08/03 02:57:24;;;;;;;2.77;2.57;;;19.80;97.60;;;;;;10440654;28;20401;-67
2023/08/03 03:02:25;;;;;;;3.63;2.60;;;19.90;97.60;;;;;;10441066;28;20405;-68
2023/08/03 03:07:27;;;;;;;3.43;2.50;;;19.80;97.60;;;;;;10450781;28;20452;-68
2023/08/03 03:12:27;;;;;;;3.40;3.00;;;19.80;97.50;;;;;;10446714;28;20384;-68
2023/08/03 03:17:28;;;;;;;3.83;2.77;;;19.80;97.50;;;;;;10443004;28;20932;-69
2023/08/03 03:22:28;;;;;;;4.07;2.80;;;19.80;97.60;;;;;;10450444;28;20824;-68
2023/08/03 03:27:29;;;;;;;3.10;2.80;;;19.80;97.80;;;;;;10445688;28;20411;-69
2023/08/03 03:32:30;;;;;;;3.33;3.00;;;19.80;97.50;;;;;;10449318;28;20451;-68
2023/08/03 03:37:30;;;;;;;3.83;2.90;;;19.90;97.50;;;;;;10450093;28;20408;-68
2023/08/03 03:42:31;;;;;;;4.10;3.10;;;19.80;97.50;;;;;;10445898;28;20462;-68
2023/08/03 03:47:31;;;;;;;4.43;3.20;;;19.80;97.50;;;;;;10450267;28;20413;-69
2023/08/03 03:52:32;;;;;;;4.43;3.33;;;19.80;97.60;;;;;;10454034;28;20682;-68
2023/08/03 03:57:33;;;;;;;4.93;3.20;;;19.80;97.50;;;;;;10446997;28;20453;-68
2023/08/03 04:02:33;;;;;;;4.77;3.17;;;19.80;97.60;;;;;;10452517;28;20399;-67
2023/08/03 04:07:34;;;;;;;3.60;3.10;;;19.70;97.60;;;;;;10462020;28;20410;-68
2023/08/03 04:12:34;;;;;;;4.17;3.03;;;19.70;97.50;;;;;;10453311;28;20449;-69
2023/08/03 04:17:35;;;;;;;5.00;3.27;;;19.70;97.50;;;;;;10457055;28;20412;-67
2023/08/03 04:22:36;;;;;;;5.40;3.20;;;19.70;97.50;;;;;;10458647;28;20405;-69
2023/08/03 04:27:36;;;;;;;4.80;3.40;;;19.70;97.60;;;;;;10457796;28;20436;-68
2023/08/03 04:32:37;;;;;;;4.07;3.07;;;19.70;97.60;;;;;;10461110;28;20523;-67
2023/08/03 04:37:38;;;;;;;4.10;3.53;;;19.70;97.60;;;;;;10462129;28;20430;-68
2023/08/03 04:42:39;;;;;;;4.20;3.47;;;19.70;97.70;;;;;;10456738;28;20574;-67
2023/08/03 04:47:39;;;;;;;3.87;3.27;;;19.70;97.70;;;;;;10458237;28;20501;-69
2023/08/03 04:52:40;;;;;;;4.47;3.50;;;19.70;97.70;;;;;;10449302;28;20831;-68
2023/08/03 04:57:40;;;;;;;4.40;3.30;;;19.70;97.70;;;;;;10449799;28;20404;-67
2023/08/03 05:02:41;;;;;;;5.35;3.65;;;19.70;97.60;;;;;;10454809;28;20447;-67
2023/08/03 05:07:42;;;;;;;4.15;3.72;;;19.70;97.70;;;;;;10450374;28;20405;-68
2023/08/03 05:12:43;;;;;;;5.22;3.75;;;19.70;97.60;;;;;;10449058;28;20958;-68
2023/08/03 05:17:44;;;;;;;4.93;3.42;;;19.70;97.70;;;;;;10444930;28;20416;-68
2023/08/03 05:22:44;;;;;;;5.50;3.53;;;19.60;97.60;;;;;;10452269;28;20534;-68
2023/08/03 05:27:45;;;;;;;3.93;3.50;;;19.70;97.60;;;;;;10449175;28;20416;-68
2023/08/03 05:32:45;;;;;;;5.40;3.53;;;19.80;97.70;;;;;;10451710;28;20791;-68
2023/08/03 05:37:46;;;;;;;4.60;3.50;;;19.70;97.60;;;;;;10457002;28;20409;-67
2023/08/03 05:42:47;;;;;;;5.15;3.95;;;19.70;97.60;;;;;;10451323;28;20404;-68
2023/08/03 05:47:47;;;;;;;5.28;3.60;;;19.70;97.60;;;;;;10447036;28;20413;-67
2023/08/03 05:52:50;;;;;;;6.07;3.90;;;19.80;97.70;;;;;;10449827;28;20463;-69
2023/08/03 05:57:50;;;;;;;4.40;3.70;;;19.80;97.70;;;;;;10458154;28;20401;-68
2023/08/03 06:02:51;;;;;;;4.73;3.97;;;19.80;97.60;;;;;;10429843;28;21072;-68
2023/08/03 06:07:52;;;;;;;5.80;3.85;;;19.80;97.60;;;;;;10450847;28;20466;-68
2023/08/03 06:12:53;;;;;;;4.57;3.67;;;19.80;97.60;;;;;;10449968;28;20903;-68
2023/08/03 06:18:02;;;;;;;6.78;3.72;;;19.80;97.60;;;;;;10458798;28;20408;-67
2023/08/03 06:23:03;;;;;;;6.68;4.45;;;19.80;97.80;;;;;;10438612;28;20661;-67
2023/08/03 06:28:05;;;;;;;4.80;4.20;;;19.80;97.90;;;;;;10454439;28;20937;-66
2023/08/03 06:33:11;;;;;;;5.63;4.30;;;19.80;97.70;;;;;;10451785;28;20401;-66
2023/08/03 06:38:14;;;;;;;6.30;4.77;;;19.80;97.70;;;;;;10455474;28;20414;-67
2023/08/03 06:43:15;;;;;;;7.35;4.50;;;19.80;97.60;;;;;;10454712;28;20414;-67
2023/08/03 06:48:16;;;;;;;6.40;4.57;;;19.90;97.70;;;;;;10445946;28;20924;-66
2023/08/03 06:53:17;;;;;;;9.97;4.53;;;19.90;97.70;;;;;;10454830;28;20503;-66
2023/08/03 06:58:18;;;;;;;7.73;4.93;;;19.90;98.30;;;;;;10452317;28;20452;-66
2023/08/03 07:03:19;;;;;;;7.53;4.80;;;19.90;98.50;;;;;;10442432;28;20413;-67
2023/08/03 07:08:19;;;;;;;7.20;4.90;;;19.90;98.40;;;;;;10441510;28;20418;-67
2023/08/03 07:13:20;;;;;;;7.63;4.67;;;19.90;98.20;;;;;;10444079;28;20531;-67
2023/08/03 07:18:20;;;;;;;5.93;4.80;;;20.00;98.40;;;;;;10437627;28;20410;-66
2023/08/03 07:23:21;;;;;;;6.43;4.97;;;20.00;98.10;;;;;;10444999;28;20784;-67
2023/08/03 07:28:22;;;;;;;6.83;4.80;;;20.00;98.00;;;;;;10440627;28;20437;-67
2023/08/03 07:33:22;;;;;;;6.43;4.73;;;20.00;97.90;;;;;;10442401;28;20403;-66
2023/08/03 07:38:23;;;;;;;5.80;4.70;;;20.10;97.80;;;;;;10439287;28;20414;-67
2023/08/03 07:43:23;;;;;;;5.47;4.83;;;19.70;97.70;;;;;;10439474;28;20490;-65
2023/08/03 07:48:24;;;;;;;6.50;4.97;;;20.10;97.70;;;;;;10441652;28;20416;-66
2023/08/03 07:53:27;;;;;;;5.65;4.80;;;20.20;97.70;;;;;;10433248;28;20414;-66
2023/08/03 07:58:27;;;;;;;5.63;4.53;;;20.20;97.60;;;;;;10436792;28;20395;-66
2023/08/03 08:03:28;;;;;;;5.90;4.80;;;20.20;97.90;;;;;;10438502;28;20398;-66
2023/08/03 08:08:28;;;;;;;5.87;4.50;;;20.20;97.60;;;;;;10440562;28;20836;-67
2023/08/03 08:13:30;;;;;;;8.33;4.70;;;20.30;97.60;;;;;;10441229;28;20480;-66
2023/08/03 08:18:31;;;;;;;7.60;4.78;;;20.30;97.60;;;;;;10439541;28;20892;-66
2023/08/03 08:23:32;;;;;;;7.07;4.78;;;20.40;97.60;;;;;;10439169;28;20532;-66
2023/08/03 08:28:33;;;;;;;6.07;4.80;;;20.40;97.50;;;;;;10449679;28;20404;-66
2023/08/03 08:33:33;;;;;;;5.13;4.40;;;20.40;97.50;;;;;;10443453;28;20403;-66
2023/08/03 08:38:34;;;;;;;8.80;4.50;;;20.40;97.40;;;;;;10441416;28;20448;-66
2023/08/03 08:43:34;;;;;;;7.15;4.57;;;20.40;97.60;;;;;;10442871;28;20842;-66
2023/08/03 08:48:35;;;;;;;6.07;4.78;;;20.50;97.60;;;;;;10446221;28;20421;-66
2023/08/03 08:53:36;;;;;;;7.07;4.78;;;20.50;97.50;;;;;;10449600;28;20837;-68
2023/08/03 09:34:04;;;;;;;5.05;1.30;;;19.90;99.80;;;;;;10528856;27;20984;-68
2023/08/03 09:39:14;;;;;;;4.57;1.45;;;20.10;99.90;;;;;;10490376;28;20553;-69
2023/08/03 09:44:17;;;;;;;3.80;1.20;;;20.30;99.80;;;;;;10480450;28;20438;-69
2023/08/03 09:49:17;;;;;;;5.53;1.40;;;20.50;98.70;;;;;;10482950;28;20398;-69
2023/08/03 09:54:29;;;;;;;6.07;1.50;;;20.60;98.20;;;;;;10472275;28;20404;-69
2023/08/03 09:59:33;;;;;;;5.18;1.48;;;20.70;98.40;;;;;;10472805;28;20796;-69
2023/08/03 10:04:47;;;;;;;5.77;1.70;;;20.80;98.10;;;;;;10471172;28;20501;-68
2023/08/03 10:09:52;;;;;;;6.25;1.90;;;20.90;98.10;;;;;;10473420;28;20505;-68
2023/08/03 10:14:54;;;;;;;5.17;1.37;;;21.10;97.70;;;;;;10477694;28;20411;-70
2023/08/03 10:19:55;;;;;;;6.33;1.80;;;21.10;97.70;;;;;;10473023;28;20468;-68
2023/08/03 10:25:15;;;;;;;4.68;1.40;;;21.30;97.40;;;;;;10480355;28;20406;-68
2023/08/03 10:30:17;;;;;;;6.95;1.60;;;21.40;96.90;;;;;;10493931;28;20873;-68
2023/08/03 10:35:50;;;;;;;6.22;1.90;;;21.60;96.70;;;;;;10530044;28;20498;-69
2023/08/03 10:41:27;;;;;;;7.50;2.00;;;21.70;97.20;;;;;;10481300;28;20457;-69
2023/08/03 10:46:47;;;;;;;3.70;1.80;;;21.50;97.20;;;;;;10483918;28;20922;-69
2023/08/03 10:52:24;;;;;;;3.88;1.20;;;21.40;97.30;;;;;;10489460;28;20417;-69
2023/08/03 10:57:29;;;;;;;3.37;1.30;;;21.60;97.00;;;;;;10489818;28;20406;-69
2023/08/03 11:02:33;;;;;;;4.85;1.30;;;21.80;97.00;;;;;;10473885;28;20401;-68
2023/08/03 11:07:42;;;;;;;3.67;1.30;;;21.80;96.60;;;;;;10490944;28;20416;-67
2023/08/03 11:12:44;;;;;;;3.70;1.60;;;21.70;97.10;;;;;;10484288;28;20421;-67
2023/08/03 11:17:49;;;;;;;4.50;1.40;;;21.60;97.30;;;;;;10478844;28;20420;-68
2023/08/03 11:22:50;;;;;;;4.78;1.60;;;21.60;97.30;;;;;;10491622;28;20443;-67
2023/08/03 11:27:51;;;;;;;4.35;1.70;;;21.60;97.30;;;;;;10500827;28;20433;-67
2023/08/03 11:32:57;;;;;;;4.93;2.00;;;21.60;97.50;;;;;;10484946;28;20416;-67
2023/08/03 11:37:58;;;;;;;6.80;1.80;;;21.60;97.40;;;;;;10486997;28;20437;-67
2023/08/03 11:42:59;;;;;;;3.57;1.80;;;21.70;97.50;;;;;;10491907;28;20543;-67
2023/08/03 11:48:00;;;;;;;5.15;1.92;;;21.70;97.40;;;;;;10487884;28;20403;-68
2023/08/03 11:53:01;;;;;;;5.40;1.88;;;21.70;97.50;;;;;;10483460;28;20440;-68
2023/08/03 11:58:07;;;;;;;5.25;2.17;;;21.70;97.40;;;;;;10489441;28;20433;-68
2023/08/03 12:03:08;;;;;;;3.17;1.60;;;21.70;97.50;;;;;;10488250;28;20439;-67
2023/08/03 12:08:10;;;;;;;7.00;1.80;;;21.70;97.50;;;;;;10496096;28;20489;-68
2023/08/03 12:13:10;;;;;;;6.70;2.00;;;21.70;97.50;;;;;;10494266;28;20415;-68
2023/08/03 12:18:11;;;;;;;5.38;1.85;;;21.80;97.60;;;;;;10486516;28;20437;-68
2023/08/03 12:23:11;;;;;;;6.78;1.80;;;21.80;97.60;;;;;;10489139;28;20415;-69
2023/08/03 12:28:13;;;;;;;4.97;1.90;;;21.80;97.60;;;;;;10494799;28;20412;-69
2023/08/03 12:33:13;;;;;;;7.07;1.60;;;21.80;97.70;;;;;;10488890;28;20423;-69
2023/08/03 12:38:14;;;;;;;5.10;1.83;;;21.80;97.60;;;;;;10488013;28;20399;-69
2023/08/03 12:43:14;;;;;;;4.77;2.10;;;21.80;97.50;;;;;;10486391;28;20848;-69
2023/08/03 12:48:15;;;;;;;3.57;1.80;;;21.80;97.50;;;;;;10487503;28;20413;-69
2023/08/03 12:53:18;;;;;;;6.43;1.80;;;21.90;97.60;;;;;;10487580;28;20424;-69
2023/08/03 12:58:18;;;;;;;5.85;1.90;;;21.90;97.50;;;;;;10485776;28;20962;-70
2023/08/03 13:03:23;;;;;;;4.07;1.77;;;21.90;97.50;;;;;;10492755;28;20495;-71
2023/08/03 13:08:24;;;;;;;4.53;1.77;;;21.80;97.50;;;;;;10483513;28;20418;-70
2023/08/03 13:13:24;;;;;;;4.53;1.70;;;21.80;97.80;;;;;;10490211;28;20485;-69
2023/08/03 13:18:26;;;;;;;5.45;2.03;;;21.80;97.80;;;;;;10486259;28;20898;-70
2023/08/03 13:23:26;;;;;;;4.93;2.13;;;21.80;97.80;;;;;;10489734;28;20415;-69
2023/08/03 13:28:27;;;;;;;4.17;1.77;;;21.80;97.70;;;;;;10484062;28;20431;-68
2023/08/03 13:33:27;;;;;;;7.00;2.00;;;21.70;97.50;;;;;;10490536;28;20516;-68
2023/08/03 13:38:28;;;;;;;6.57;2.00;;;21.50;97.00;;;;;;10476762;28;20441;-68
2023/08/03 13:43:29;;;;;;;7.63;2.57;;;21.20;97.10;;;;;;10486516;28;20466;-67
2023/08/03 13:48:29;;;;;;;7.13;2.57;;;20.80;98.00;;;;;;10487832;28;20486;-67
2023/08/03 13:53:30;;;;;;;6.83;2.53;;;20.90;98.10;;;;;;10482729;28;20415;-67
2023/08/03 13:58:31;;;;;;;6.40;2.80;;;21.20;98.00;;;;;;10477919;28;20790;-67
2023/08/03 14:03:31;;;;;;;5.77;2.70;;;21.20;97.80;;;;;;10489225;28;20498;-66
2023/08/03 14:08:32;;;;;;;7.27;3.10;;;21.30;98.00;;;;;;10480851;28;20411;-66
2023/08/03 14:13:32;;;;;;;7.73;2.80;;;21.40;97.80;;;;;;10478560;28;20446;-66
2023/08/03 14:18:33;;;;;;;7.50;3.27;;;21.50;97.60;;;;;;10483653;28;20404;-66
2023/08/03 14:23:34;;;;;;;8.77;2.80;;;21.60;97.40;;;;;;10500760;28;20858;-67
2023/08/03 14:28:34;;;;;;;7.57;2.90;;;21.70;97.30;;;;;;10485861;28;20407;-67
2023/08/03 14:33:35;;;;;;;6.30;2.93;;;21.80;97.30;;;;;;10484818;28;20987;-66
2023/08/03 14:38:35;;;;;;;6.70;2.90;;;21.90;97.20;;;;;;10490752;28;20446;-67
2023/08/03 14:43:36;;;;;;;5.38;2.92;;;21.90;97.20;;;;;;10494680;28;20463;-66
2023/08/03 14:48:37;;;;;;;5.40;2.80;;;21.90;97.10;;;;;;10478033;28;20444;-66
2023/08/03 14:53:38;;;;;;;6.30;2.92;;;22.00;97.00;;;;;;10499961;28;20770;-67
2023/08/03 14:58:38;;;;;;;5.72;2.70;;;22.00;97.00;;;;;;10494276;28;20927;-66
2023/08/03 15:03:39;;;;;;;6.90;2.67;;;22.00;96.90;;;;;;10481205;28;20499;-66
2023/08/03 15:08:39;;;;;;;5.47;2.53;;;22.10;96.90;;;;;;10488902;28;20938;-66
2023/08/03 15:13:40;;;;;;;9.00;2.83;;;22.00;96.80;;;;;;10496039;28;20491;-76
2023/08/03 15:18:41;;;;;;;7.80;2.90;;;22.00;96.30;;;;;;10497375;28;20405;-68
2023/08/03 15:23:43;;;;;;;5.80;3.00;;;22.00;96.60;;;;;;10487442;28;20500;-69
2023/08/03 15:28:46;;;;;;;6.82;3.00;;;21.90;96.90;;;;;;10482487;28;20409;-70
2023/08/03 15:33:49;;;;;;;6.03;2.90;;;22.00;96.70;;;;;;10491600;28;20512;-70
2023/08/03 15:38:50;;;;;;;7.28;2.90;;;22.00;96.70;;;;;;10492168;28;20402;-69
2023/08/03 15:43:50;;;;;;;6.18;2.97;;;22.00;96.70;;;;;;10491346;28;20472;-71
2023/08/03 15:48:52;;;;;;;7.87;3.10;;;21.90;96.70;;;;;;10477478;28;20407;-69
2023/08/03 15:53:53;;;;;;;7.37;3.40;;;21.90;96.70;;;;;;10490320;28;20421;-69
2023/08/03 15:58:54;;;;;;;7.70;3.40;;;21.90;96.70;;;;;;10494538;28;20882;-69
2023/08/03 16:03:54;;;;;;;6.70;3.53;;;21.90;96.80;;;;;;10485500;28;20856;-68
2023/08/03 16:08:55;;;;;;;6.83;3.60;;;21.90;96.90;;;;;;10490720;28;20513;-68
2023/08/03 16:13:55;;;;;;;6.60;3.57;;;21.80;96.90;;;;;;10486809;28;20512;-68
2023/08/03 16:18:56;;;;;;;8.63;3.50;;;21.90;96.80;;;;;;10482675;28;20410;-68
2023/08/03 16:23:57;;;;;;;7.97;3.23;;;22.00;96.90;;;;;;10487704;28;20407;-68
2023/08/03 16:28:57;;;;;;;7.33;3.47;;;21.80;96.90;;;;;;10496046;28;20885;-69
2023/08/03 16:34:02;;;;;;;6.90;3.57;;;21.80;97.00;;;;;;10483793;28;20730;-69
2023/08/03 16:39:04;;;;;;;8.00;4.10;;;21.80;97.00;;;;;;10483811;28;20480;-69
2023/08/03 16:44:04;;;;;;;6.57;3.30;;;21.80;97.00;;;;;;10493262;28;21052;-69
2023/08/03 16:49:05;;;;;;;8.73;3.60;;;21.80;96.90;;;;;;10487317;28;20472;-70
2023/08/03 16:54:05;;;;;;;9.57;3.70;;;21.80;96.90;;;;;;10489304;28;20434;-68
2023/08/03 16:59:08;;;;;;;12.27;3.50;;;21.80;96.90;;;;;;10486875;28;20408;-66
2023/08/03 17:04:08;;;;;;;10.10;3.80;;;21.60;96.90;;;;;;10472501;28;20411;-66
2023/08/03 17:09:09;;;;;;;7.90;3.47;;;21.70;96.90;;;;;;10484683;28;20938;-67
2023/08/03 17:14:10;;;;;;;8.15;3.80;;;21.60;97.00;;;;;;10487620;28;20411;-67
2023/08/03 17:19:11;;;;;;;8.43;3.60;;;21.70;97.00;;;;;;10485321;28;20406;-67
2023/08/03 17:24:11;;;;;;;6.65;3.80;;;21.60;97.00;;;;;;10490383;28;20403;-68
2023/08/03 17:29:12;;;;;;;8.70;4.22;;;21.70;97.00;;;;;;10484868;28;20406;-67
2023/08/03 17:34:13;;;;;;;7.07;3.85;;;21.60;96.90;;;;;;10488827;28;20413;-68
2023/08/03 17:39:13;;;;;;;7.30;3.67;;;21.70;97.00;;;;;;10480608;28;20405;-67
2023/08/03 17:44:15;;;;;;;7.93;3.90;;;21.70;97.00;;;;;;10482734;28;20401;-67
2023/08/03 17:49:15;;;;;;;5.70;3.50;;;21.60;97.20;;;;;;10465200;28;20417;-67
2023/08/03 17:54:16;;;;;;;10.33;4.00;;;21.60;97.20;;;;;;10484411;28;20416;-68
2023/08/03 17:59:17;;;;;;;5.73;3.63;;;21.70;97.20;;;;;;10479414;28;21137;-67
2023/08/03 18:04:17;;;;;;;9.77;3.90;;;21.60;97.20;;;;;;10482165;28;20913;-68
2023/08/03 18:09:18;;;;;;;6.90;3.70;;;21.60;97.30;;;;;;10483498;28;20780;-67
2023/08/03 18:14:19;;;;;;;8.13;4.00;;;21.60;97.30;;;;;;10482969;28;20417;-67
2023/08/03 18:19:19;;;;;;;8.83;4.50;;;21.60;97.30;;;;;;10493946;28;20953;-67
2023/08/03 18:24:20;;;;;;;9.23;3.90;;;21.60;97.40;;;;;;10482108;28;20459;-67
2023/08/03 18:29:20;;;;;;;7.53;4.00;;;21.50;97.40;;;;;;10478721;28;20417;-68
2023/08/03 18:34:21;;;;;;;8.43;4.60;;;21.50;97.40;;;;;;10488492;28;21146;-68
2023/08/03 18:39:22;;;;;;;7.77;4.20;;;21.60;97.50;;;;;;10489256;28;20414;-68
2023/08/03 18:44:22;;;;;;;9.03;4.23;;;21.50;97.40;;;;;;10491730;28;20408;-68
2023/08/03 18:49:23;;;;;;;10.23;4.23;;;21.50;97.60;;;;;;10483411;28;20397;-68
2023/08/03 18:54:24;;;;;;;8.50;4.20;;;21.40;97.60;;;;;;10490206;28;20435;-68
2023/08/03 18:59:24;;;;;;;7.30;4.40;;;21.40;97.70;;;;;;10477713;28;20793;-67
2023/08/03 19:04:25;;;;;;;10.07;5.20;;;21.40;97.60;;;;;;10470798;28;20423;-68
2023/08/03 19:09:25;;;;;;;9.90;4.77;;;21.40;97.60;;;;;;10477736;28;20770;-68
2023/08/03 19:14:26;;;;;;;10.85;5.20;;;21.40;97.60;;;;;;10486223;28;20452;-68
2023/08/03 19:19:29;;;;;;;8.50;4.70;;;21.40;97.60;;;;;;10485022;28;20703;-68
2023/08/03 19:24:31;;;;;;;7.45;4.32;;;21.40;97.50;;;;;;10487164;28;20405;-68
2023/08/03 19:29:31;;;;;;;8.57;4.40;;;21.40;97.60;;;;;;10484994;28;20416;-68
2023/08/03 19:34:32;;;;;;;8.73;4.70;;;21.30;97.60;;;;;;10481336;28;20412;-68
2023/08/03 19:39:32;;;;;;;9.87;4.67;;;21.30;97.70;;;;;;10490122;28;20599;-68
2023/08/03 19:44:33;;;;;;;9.02;4.70;;;21.30;97.50;;;;;;10487048;28;20396;-68
2023/08/03 19:49:34;;;;;;;7.38;4.10;;;21.30;97.60;;;;;;10485928;28;20783;-67
2023/08/03 19:54:34;;;;;;;10.35;5.00;;;21.30;97.40;;;;;;10478338;28;20404;-68
2023/08/03 19:59:35;;;;;;;8.47;4.50;;;21.30;97.50;;;;;;10483801;28;20402;-68
2023/08/03 20:04:36;;;;;;;9.52;4.63;;;21.30;97.30;;;;;;10484896;28;20805;-68
2023/08/03 20:09:37;;;;;;;9.98;4.97;;;21.20;97.30;;;;;;10488028;28;20439;-68
2023/08/03 20:14:38;;;;;;;7.70;4.30;;;21.20;97.20;;;;;;10476924;28;20417;-68
2023/08/03 20:19:45;;;;;;;6.63;4.13;;;21.20;97.10;;;;;;10482656;28;20918;-68
2023/08/03 20:24:46;;;;;;;6.97;3.80;;;21.10;97.00;;;;;;10489645;28;20484;-68
2023/08/03 20:29:46;;;;;;;7.53;3.50;;;21.10;97.10;;;;;;10477106;28;20413;-69
2023/08/03 20:34:48;;;;;;;10.50;4.97;;;21.10;97.00;;;;;;10487343;28;20397;-67
2023/08/03 20:39:48;;;;;;;9.10;5.70;;;21.10;97.20;;;;;;10479135;28;20411;-67
2023/08/03 20:44:49;;;;;;;11.68;6.10;;;21.10;97.30;;;;;;10485610;28;20778;-68
2023/08/03 20:49:50;;;;;;;9.63;6.35;;;21.00;97.00;;;;;;10486551;28;20412;-68
2023/08/03 20:54:50;;;;;;;6.40;4.30;;;21.00;96.90;;;;;;10487997;28;20396;-68
2023/08/03 20:59:51;;;;;;;7.00;3.70;;;21.00;96.80;;;;;;10483047;28;20411;-68
2023/08/03 21:04:52;;;;;;;8.53;4.50;;;21.00;96.70;;;;;;10478209;28;20497;-68
2023/08/03 21:09:52;;;;;;;5.37;3.53;;;21.00;96.70;;;;;;10481209;28;20499;-67
2023/08/03 21:14:53;;;;;;;6.97;3.80;;;21.00;96.60;;;;;;10490325;28;20410;-67
2023/08/03 21:19:58;;;;;;;5.37;3.57;;;20.90;96.60;;;;;;10474357;28;20413;-67
2023/08/03 21:24:58;;;;;;;7.45;3.88;;;20.90;96.60;;;;;;10482093;28;20414;-67
2023/08/03 21:29:59;;;;;;;6.17;3.70;;;20.90;96.50;;;;;;10473261;28;20412;-67
2023/08/03 21:35:00;;;;;;;6.10;3.50;;;20.90;96.50;;;;;;10474779;28;20421;-67
2023/08/03 21:40:00;;;;;;;6.47;3.63;;;20.90;96.50;;;;;;10475659;28;20769;-67
2023/08/03 21:45:01;;;;;;;6.93;3.40;;;20.80;96.40;;;;;;10481005;28;20780;-67
2023/08/03 21:50:02;;;;;;;5.63;3.40;;;20.80;96.40;;;;;;10479446;28;20430;-67
2023/08/03 21:55:03;;;;;;;7.00;3.53;;;20.80;96.40;;;;;;10477525;28;20926;-67
2023/08/03 22:00:04;;;;;;;6.30;3.35;;;20.80;96.40;;;;;;10481353;28;20402;-67
2023/08/03 22:05:10;;;;;;;6.87;3.77;;;20.80;96.30;;;;;;10483864;28;20401;-67
2023/08/03 22:10:12;;;;;;;5.75;3.42;;;20.80;96.30;;;;;;10475965;28;20952;-67
2023/08/03 22:15:13;;;;;;;6.20;3.80;;;20.80;96.30;;;;;;10484897;28;20533;-67
2023/08/03 22:20:15;;;;;;;5.20;3.40;;;20.70;96.30;;;;;;10491543;28;20539;-67
2023/08/03 22:25:16;;;;;;;5.57;3.63;;;20.70;96.30;;;;;;10492919;28;20438;-67
2023/08/03 22:30:17;;;;;;;6.38;3.30;;;20.70;96.30;;;;;;10491930;28;20514;-67
2023/08/03 22:35:17;;;;;;;7.28;3.55;;;20.70;96.30;;;;;;10486268;28;20409;-67
2023/08/03 22:40:18;;;;;;;5.37;3.70;;;20.70;96.30;;;;;;10495934;28;20403;-67
2023/08/03 22:45:19;;;;;;;5.03;3.50;;;20.70;96.30;;;;;;10497607;28;20403;-67
2023/08/03 22:50:19;;;;;;;5.17;3.60;;;20.70;96.30;;;;;;10493272;28;20426;-67
2023/08/03 22:55:20;;;;;;;5.27;3.47;;;20.70;96.30;;;;;;10492855;28;20401;-67
2023/08/03 23:00:21;;;;;;;5.53;3.33;;;20.70;96.30;;;;;;10496643;28;20456;-67
2023/08/03 23:05:21;;;;;;;5.30;3.40;;;20.70;96.30;;;;;;10500326;28;20409;-67
2023/08/03 23:10:22;;;;;;;6.17;3.47;;;20.70;96.30;;;;;;10500413;28;20771;-67
2023/08/03 23:15:22;;;;;;;5.10;3.40;;;20.60;96.30;;;;;;10500127;28;20396;-66
2023/08/03 23:20:23;;;;;;;7.07;3.77;;;20.60;96.50;;;;;;10492145;28;20419;-66
2023/08/03 23:25:24;;;;;;;7.23;3.70;;;20.60;96.30;;;;;;10494977;28;20418;-67
2023/08/03 23:30:24;;;;;;;5.43;3.60;;;20.60;96.30;;;;;;10498657;28;20408;-67
2023/08/03 23:35:32;;;;;;;5.60;4.00;;;20.60;96.30;;;;;;10492965;28;20927;-67
2023/08/03 23:40:33;;;;;;;5.38;3.50;;;20.60;96.30;;;;;;10493737;28;20413;-67
2023/08/03 23:45:33;;;;;;;6.95;3.60;;;20.60;96.30;;;;;;10493823;28;20533;-67
2023/08/03 23:50:34;;;;;;;6.23;3.70;;;20.60;96.30;;;;;;10499033;28;20402;-67
2023/08/03 23:55:35;;;;;;;6.73;4.03;;;20.50;96.20;;;;;;10495533;28;20396;-67
